Time;durP1;ratioP1;P1;durP2;ratioP2;P2;SDS_P1;SDS_P2;PMS_P1;PMS_P2;Temp;Humidity;BMP_temperature;BMP_pressure;BME280_temperature;BME280_humidity;BME280_pressure;Samples;Min_cycle;Max_cycle;Signal;HPM_P1;HPM_P2
2022/08/12 00:44:38;;;;;;;6.17;5.57;;;;;;;19.02;100.00;96223.63;5005341;28;20203;-89
2022/08/12 00:47:05;;;;;;;6.40;5.80;;;;;;;18.97;100.00;96210.00;5014635;28;20196;-88
2022/08/12 00:49:34;;;;;;;7.23;5.57;;;;;;;18.92;100.00;96227.25;5010805;28;20288;-87
2022/08/12 00:52:08;;;;;;;6.60;5.90;;;;;;;18.94;100.00;96218.78;5009765;28;20207;-87
2022/08/12 00:54:39;;;;;;;7.53;6.10;;;;;;;19.01;100.00;96227.47;5012181;28;20226;-88
2022/08/12 00:57:08;;;;;;;7.30;5.50;;;;;;;19.14;100.00;96227.59;5026734;28;20377;-88
2022/08/12 00:59:37;;;;;;;6.23;5.60;;;;;;;19.25;100.00;96228.34;5009253;28;20210;-88
2022/08/12 01:02:06;;;;;;;8.03;5.80;;;;;;;19.34;100.00;96231.25;5010889;28;20211;-87
2022/08/12 01:12:55;;;;;;;6.60;5.70;;;;;;;19.17;100.00;96232.50;5007731;28;20256;-87
2022/08/12 01:15:23;;;;;;;6.05;5.50;;;;;;;19.14;100.00;96224.88;5007508;28;20202;-88
2022/08/12 01:17:51;;;;;;;6.20;5.70;;;;;;;19.22;100.00;96231.66;5007918;28;20207;-88
2022/08/12 01:20:26;;;;;;;6.38;5.80;;;;;;;19.27;100.00;96224.22;5024361;28;20610;-88
2022/08/12 01:23:26;;;;;;;6.22;5.72;;;;;;;19.36;100.00;96229.06;5011818;28;20248;-88
2022/08/12 01:25:57;;;;;;;6.53;5.68;;;;;;;19.32;100.00;96206.91;5011321;28;20212;-88
2022/08/12 01:28:28;;;;;;;8.45;5.40;;;;;;;19.31;100.00;96209.97;5009914;28;20214;-88
2022/08/12 01:30:57;;;;;;;6.50;6.00;;;;;;;19.29;100.00;96212.97;5020015;28;20238;-87
2022/08/12 01:33:27;;;;;;;6.60;5.70;;;;;;;19.23;100.00;96209.47;5008717;28;20321;-89
2022/08/12 01:35:59;;;;;;;6.35;5.72;;;;;;;19.21;100.00;96206.22;5026712;28;20199;-89
2022/08/12 01:38:29;;;;;;;5.95;5.32;;;;;;;19.17;100.00;96212.53;5010308;28;20226;-88
2022/08/12 01:40:59;;;;;;;6.35;5.60;;;;;;;19.09;100.00;96202.22;5020850;28;20200;-88
2022/08/12 01:43:27;;;;;;;5.68;5.18;;;;;;;19.04;100.00;96210.47;5003774;28;20223;-88
2022/08/12 01:46:05;;;;;;;6.00;5.50;;;;;;;18.95;100.00;96201.25;5023237;28;20219;-88
2022/08/12 01:48:49;;;;;;;9.32;5.47;;;;;;;18.97;100.00;96210.00;5002533;28;20210;-88
2022/08/12 01:51:39;;;;;;;7.95;5.90;;;;;;;18.96;100.00;96206.44;5007281;28;20215;-88
2022/08/12 01:54:11;;;;;;;8.50;5.50;;;;;;;19.01;100.00;96198.19;5003234;28;20252;-88
2022/08/12 01:56:51;;;;;;;6.50;5.82;;;;;;;19.08;100.00;96193.19;5009688;28;20235;-87
2022/08/12 01:59:48;;;;;;;6.70;6.10;;;;;;;18.97;100.00;96194.38;5009718;28;20272;-88
2022/08/12 02:02:18;;;;;;;6.10;5.60;;;;;;;18.98;100.00;96197.91;5019501;28;20294;-88
2022/08/12 02:14:10;;;;;;;9.13;8.23;;;;;;;18.82;100.00;96192.59;5007401;28;20226;-88
2022/08/12 02:16:56;;;;;;;6.40;5.80;;;;;;;18.84;100.00;96184.09;5011220;28;20213;-88
2022/08/12 02:19:47;;;;;;;6.63;5.87;;;;;;;18.78;100.00;96188.81;5000928;28;20238;-88
2022/08/12 02:22:30;;;;;;;6.77;6.17;;;;;;;18.68;100.00;96186.16;5007195;28;20211;-88
2022/08/12 02:25:04;;;;;;;6.50;5.80;;;;;;;18.61;100.00;96188.41;5007654;28;20210;-88
2022/08/12 02:27:38;;;;;;;6.37;5.60;;;;;;;18.58;100.00;96186.22;5005447;28;20241;-87
2022/08/12 02:30:10;;;;;;;7.40;6.70;;;;;;;18.59;100.00;96182.38;4994683;28;20288;-87
2022/08/12 02:32:40;;;;;;;6.40;5.70;;;;;;;18.56;100.00;96180.19;5003448;28;20459;-88
2022/08/12 02:35:13;;;;;;;6.07;5.57;;;;;;;18.62;100.00;96179.09;5006140;28;20230;-88
2022/08/12 02:37:42;;;;;;;6.70;5.47;;;;;;;18.61;100.00;96179.38;5009809;28;20209;-89
2022/08/12 02:40:12;;;;;;;6.53;5.70;;;;;;;18.60;100.00;96175.81;5007312;28;20211;-87
2022/08/12 02:42:46;;;;;;;5.90;5.40;;;;;;;18.58;100.00;96164.34;5005019;28;20207;-87
2022/08/12 02:45:20;;;;;;;6.43;5.83;;;;;;;18.62;100.00;96179.09;5004179;28;20275;-88
2022/08/12 02:47:49;;;;;;;6.30;5.70;;;;;;;18.63;100.00;96166.25;5007427;28;20210;-88
2022/08/12 02:50:20;;;;;;;7.40;6.17;;;;;;;18.68;100.00;96157.97;5009069;28;20253;-88
2022/08/12 02:52:48;;;;;;;6.63;5.60;;;;;;;18.64;100.00;96160.47;5010800;28;20213;-88
2022/08/12 02:55:20;;;;;;;7.50;6.57;;;;;;;18.57;100.00;96157.25;5011450;28;20245;-88
2022/08/12 02:57:48;;;;;;;7.57;5.90;;;;;;;18.55;100.00;96156.66;5000232;28;20354;-88
2022/08/12 03:00:17;;;;;;;6.32;5.70;;;;;;;18.65;100.00;96170.28;4999611;28;20200;-88
2022/08/12 03:02:46;;;;;;;6.47;5.87;;;;;;;18.54;100.00;96171.47;5025981;28;20212;-88
2022/08/12 03:05:15;;;;;;;7.55;5.82;;;;;;;18.42;100.00;96171.81;5009386;28;20203;-88
2022/08/12 03:07:47;;;;;;;6.90;6.30;;;;;;;18.41;100.00;96161.16;5015945;28;20279;-88
2022/08/12 03:10:18;;;;;;;6.90;6.30;;;;;;;18.46;100.00;96161.94;5001977;28;20214;-88
2022/08/12 03:12:46;;;;;;;6.77;6.17;;;;;;;18.44;100.00;96168.81;5017499;28;20207;-88
2022/08/12 03:15:16;;;;;;;6.90;6.10;;;;;;;18.30;100.00;96162.31;5001226;28;20318;-87
2022/08/12 03:17:51;;;;;;;6.60;6.00;;;;;;;18.19;100.00;96163.50;5005195;28;20238;-88
2022/08/12 03:20:20;;;;;;;10.10;6.80;;;;;;;18.22;100.00;96173.84;5011620;28;20217;-88
2022/08/12 03:22:50;;;;;;;6.93;6.03;;;;;;;18.27;100.00;96174.66;5021724;28;20596;-88
2022/08/12 03:25:23;;;;;;;6.20;5.70;;;;;;;18.28;100.00;96170.00;5008916;28;20213;-89
2022/08/12 03:27:55;;;;;;;6.80;6.20;;;;;;;18.24;100.00;96158.81;5010239;28;20198;-88
2022/08/12 03:30:24;;;;;;;6.90;6.30;;;;;;;18.26;100.00;96155.81;5012866;28;20211;-87
2022/08/12 03:32:55;;;;;;;7.13;5.97;;;;;;;18.27;100.00;96160.16;5002701;28;20207;-88
2022/08/12 03:35:26;;;;;;;7.53;6.73;;;;;;;18.20;100.00;96162.41;5009339;28;20238;-88
2022/08/12 03:37:56;;;;;;;8.57;7.73;;;;;;;18.12;100.00;96167.34;5005163;28;20210;-88
2022/08/12 04:02:41;;;;;;;7.20;6.60;;;;;;;17.87;100.00;96177.59;5011374;28;20245;-89
2022/08/12 04:05:11;;;;;;;8.83;6.70;;;;;;;17.87;100.00;96170.22;5013370;28;20298;-88
2022/08/12 04:07:39;;;;;;;7.10;6.40;;;;;;;17.92;100.00;96172.13;5009986;28;20211;-88
2022/08/12 04:10:08;;;;;;;6.93;6.30;;;;;;;17.92;100.00;96167.47;5008554;28;20219;-88
2022/08/12 04:15:23;;;;;;;10.90;7.37;;;;;;;17.72;100.00;96173.03;5010576;28;20233;-88
2022/08/12 04:17:51;;;;;;;8.60;6.63;;;;;;;17.65;100.00;96184.25;5018413;28;20213;-89
2022/08/12 04:20:21;;;;;;;8.13;6.93;;;;;;;17.59;100.00;96176.34;5009140;28;20230;-88
2022/08/12 04:22:49;;;;;;;6.83;6.23;;;;;;;17.64;100.00;96173.59;5004093;28;20191;-84
2022/08/12 04:25:17;;;;;;;6.83;6.13;;;;;;;17.68;100.00;96163.78;5001421;28;20207;-84
2022/08/12 04:27:45;;;;;;;7.87;6.13;;;;;;;17.71;100.00;96168.66;5004669;28;20214;-84
2022/08/12 04:30:13;;;;;;;7.07;6.47;;;;;;;17.63;100.00;96164.59;5007033;28;20207;-84
2022/08/12 04:32:40;;;;;;;7.13;6.03;;;;;;;17.58;100.00;96172.78;5004037;28;20215;-84
2022/08/12 04:35:08;;;;;;;8.43;6.90;;;;;;;17.48;100.00;96164.63;5011769;28;20227;-85
2022/08/12 04:37:36;;;;;;;8.23;7.30;;;;;;;17.44;100.00;96171.72;5004565;28;20211;-85
2022/08/12 04:40:04;;;;;;;11.83;7.33;;;;;;;17.38;100.00;96160.00;5000386;28;20196;-84
2022/08/12 04:42:32;;;;;;;9.73;7.03;;;;;;;17.39;100.00;96155.38;5017446;28;20203;-84
2022/08/12 04:45:00;;;;;;;7.10;6.50;;;;;;;17.50;100.00;96176.09;5003212;28;20200;-84
2022/08/12 04:47:27;;;;;;;9.80;6.80;;;;;;;17.54;100.00;96165.41;4999693;28;20227;-84
2022/08/12 04:49:54;;;;;;;7.77;6.53;;;;;;;17.56;100.00;96163.22;5027857;28;20231;-85
2022/08/12 04:52:21;;;;;;;7.27;6.47;;;;;;;17.60;100.00;96164.31;5011242;28;20207;-85
2022/08/12 04:54:51;;;;;;;7.10;6.40;;;;;;;17.58;100.00;96166.50;5001660;28;20250;-85
2022/08/12 04:57:18;;;;;;;7.03;6.40;;;;;;;17.60;100.00;96164.31;5016031;28;20245;-84
2022/08/12 04:59:45;;;;;;;7.07;6.17;;;;;;;17.68;100.00;96171.97;5009889;28;20219;-84
2022/08/12 05:02:12;;;;;;;7.33;6.67;;;;;;;17.66;100.00;96168.69;5012082;28;20203;-84
2022/08/12 05:04:40;;;;;;;7.03;6.33;;;;;;;17.62;100.00;96176.59;5006283;28;20212;-85
2022/08/12 05:07:08;;;;;;;7.83;7.03;;;;;;;17.45;100.00;96169.81;5003558;28;20203;-84
2022/08/12 05:09:35;;;;;;;8.27;7.00;;;;;;;17.48;100.00;96172.00;5008522;28;20210;-85
2022/08/12 05:12:05;;;;;;;7.70;6.70;;;;;;;17.53;100.00;96174.69;5010141;28;20218;-85
2022/08/12 05:14:32;;;;;;;7.93;6.67;;;;;;;17.53;100.00;96174.69;5010279;28;20219;-84
2022/08/12 05:16:59;;;;;;;8.87;7.33;;;;;;;17.55;100.00;96172.50;5007973;28;20293;-85
2022/08/12 05:19:26;;;;;;;7.70;7.00;;;;;;;17.53;100.00;96175.50;5007963;28;20274;-84
2022/08/12 05:21:53;;;;;;;7.87;7.07;;;;;;;17.58;100.00;96182.88;5002064;28;20207;-84
2022/08/12 05:24:20;;;;;;;7.77;6.80;;;;;;;17.56;100.00;96174.16;5010510;28;20234;-85
2022/08/12 05:26:48;;;;;;;8.17;7.27;;;;;;;17.58;100.00;96185.63;5007894;28;20205;-84
2022/08/12 05:29:16;;;;;;;7.53;6.80;;;;;;;17.48;100.00;96188.38;5004392;28;20210;-84
2022/08/12 05:31:43;;;;;;;7.50;6.80;;;;;;;17.47;100.00;96186.72;5010841;28;20211;-85
2022/08/12 05:34:13;;;;;;;7.77;6.70;;;;;;;17.33;100.00;96176.41;5002898;28;20700;-84
2022/08/12 05:36:42;;;;;;;7.30;6.60;;;;;;;17.36;100.00;96188.66;5011480;28;20203;-84
2022/08/12 05:39:09;;;;;;;7.63;6.87;;;;;;;17.36;100.00;96189.47;5005424;28;20199;-83
2022/08/12 05:41:36;;;;;;;11.00;7.23;;;;;;;17.37;100.00;96188.38;5007396;28;20203;-84
2022/08/12 05:44:06;;;;;;;9.97;7.80;;;;;;;17.39;100.00;96186.22;5011224;28;20229;-83
2022/08/12 05:46:36;;;;;;;7.33;6.63;;;;;;;17.47;100.00;96186.72;5019084;28;20235;-84
2022/08/12 05:49:05;;;;;;;8.27;7.30;;;;;;;17.57;100.00;96190.25;5007529;28;20230;-84
2022/08/12 05:51:34;;;;;;;7.57;6.83;;;;;;;17.54;100.00;96190.78;4995466;28;20238;-84
2022/08/12 05:54:02;;;;;;;8.17;7.37;;;;;;;17.55;100.00;96186.16;5002118;28;20236;-84
2022/08/12 05:56:31;;;;;;;7.60;6.70;;;;;;;17.65;100.00;96197.09;5006335;28;20231;-83
2022/08/12 05:59:00;;;;;;;7.20;6.50;;;;;;;17.73;100.00;96201.97;5027431;28;20261;-85
2022/08/12 06:01:29;;;;;;;8.53;7.63;;;;;;;17.78;100.00;96201.94;5011319;28;20222;-84
2022/08/12 06:03:57;;;;;;;7.67;6.87;;;;;;;17.80;100.00;96210.66;5011941;28;20208;-85
2022/08/12 06:06:25;;;;;;;7.77;6.90;;;;;;;17.80;100.00;96197.00;5006280;28;20222;-84
2022/08/12 06:08:54;;;;;;;7.17;6.53;;;;;;;17.85;100.00;96199.75;5008306;28;20202;-85
2022/08/12 06:11:21;;;;;;;8.47;7.67;;;;;;;17.90;100.00;96201.63;4993929;28;20234;-84
2022/08/12 06:13:49;;;;;;;8.77;7.43;;;;;;;17.93;100.00;96207.34;5027769;28;20241;-84
2022/08/12 06:16:19;;;;;;;7.97;7.17;;;;;;;17.92;100.00;96200.25;5009140;28;20211;-84
2022/08/12 06:18:47;;;;;;;8.83;7.40;;;;;;;17.86;100.00;96200.56;5008666;28;20276;-84
2022/08/12 06:21:17;;;;;;;8.47;6.80;;;;;;;17.72;100.00;96194.88;5006575;28;20252;-84
2022/08/12 06:23:45;;;;;;;8.33;7.50;;;;;;;17.73;100.00;96189.13;5005313;28;20285;-84
2022/08/12 06:26:15;;;;;;;7.73;7.03;;;;;;;17.86;100.00;96200.56;5008017;28;20195;-83
2022/08/12 06:28:42;;;;;;;7.97;7.17;;;;;;;17.91;100.00;96201.34;5011595;28;20225;-84
2022/08/12 06:31:15;;;;;;;11.33;7.33;;;;;;;17.83;100.00;96196.47;5009453;28;20305;-84
2022/08/12 06:33:43;;;;;;;8.97;7.43;;;;;;;17.72;100.00;96194.88;5013438;28;20204;-83
2022/08/12 06:36:12;;;;;;;8.60;7.70;;;;;;;17.66;100.00;96196.00;5013381;28;20222;-84
2022/08/12 06:38:42;;;;;;;8.43;7.27;;;;;;;17.69;100.00;96189.97;5000448;28;20215;-85
2022/08/12 06:44:19;;;;;;;8.30;7.50;;;;;;;17.76;100.00;96195.97;4975930;28;20329;-83
2022/08/12 06:46:46;;;;;;;7.40;6.80;;;;;;;17.85;100.00;96194.28;5018852;28;20261;-84
2022/08/12 06:49:14;;;;;;;10.17;7.00;;;;;;;18.02;100.00;96199.38;5006236;28;20269;-83
2022/08/12 06:51:41;;;;;;;7.43;6.70;;;;;;;18.12;100.00;96191.94;5010819;28;20289;-84
2022/08/12 06:54:10;;;;;;;7.63;6.93;;;;;;;18.13;100.00;96192.75;5012495;28;20226;-84
2022/08/12 06:56:37;;;;;;;8.70;7.80;;;;;;;18.04;100.00;96192.53;5001601;28;20231;-84
2022/08/12 06:59:05;;;;;;;8.73;7.73;;;;;;;18.05;100.00;96194.16;4997987;28;20298;-83
2022/08/12 07:01:32;;;;;;;9.27;7.07;;;;;;;18.12;100.00;96194.66;5008907;28;20257;-84
2022/08/12 07:03:59;;;;;;;8.30;7.20;;;;;;;18.21;100.00;96203.09;5012699;28;20214;-84
2022/08/12 07:06:26;;;;;;;7.93;6.77;;;;;;;18.28;100.00;96197.34;5011209;28;20199;-85
2022/08/12 07:08:54;;;;;;;8.50;7.60;;;;;;;18.35;100.00;96192.38;5011771;28;20291;-84
2022/08/12 07:11:22;;;;;;;9.47;7.33;;;;;;;18.34;100.00;96180.63;5010927;28;20215;-85
2022/08/12 07:13:51;;;;;;;7.77;6.97;;;;;;;18.40;100.00;96178.66;5009663;28;20203;-85
2022/08/12 07:16:20;;;;;;;7.00;6.40;;;;;;;18.40;100.00;96186.84;5012123;28;20222;-84
2022/08/12 07:18:50;;;;;;;7.50;6.80;;;;;;;18.40;100.00;96184.13;5010462;28;20302;-84
2022/08/12 07:21:18;;;;;;;11.87;7.40;;;;;;;18.42;100.00;96187.41;5011207;28;20265;-84
2022/08/12 07:23:46;;;;;;;7.50;6.80;;;;;;;18.46;100.00;96182.97;5013957;28;20257;-85
2022/08/12 07:26:15;;;;;;;7.33;6.63;;;;;;;18.54;100.00;96187.88;5012994;28;20214;-85
2022/08/12 07:28:44;;;;;;;7.80;7.00;;;;;;;18.57;100.00;96179.13;5021810;28;20286;-84
2022/08/12 07:31:12;;;;;;;7.83;7.13;;;;;;;18.72;100.00;96180.91;5006376;28;20489;-85
2022/08/12 07:33:42;;;;;;;7.90;6.43;;;;;;;18.85;100.00;96181.09;5011158;28;20206;-83
2022/08/12 07:36:13;;;;;;;7.33;6.73;;;;;;;19.14;100.00;96174.81;5008826;28;20223;-84
2022/08/12 07:38:45;;;;;;;7.03;6.40;;;;;;;19.55;100.00;96170.56;5011445;28;20207;-83
2022/08/12 07:41:17;;;;;;;7.57;6.63;;;;;;;19.97;100.00;96163.47;5025696;28;20210;-84
2022/08/12 07:43:49;;;;;;;6.85;6.25;;;;;;;20.25;100.00;96165.25;5012239;28;20210;-84
2022/08/12 07:46:19;;;;;;;6.57;6.07;;;;;;;20.61;100.00;96162.00;5010451;28;20261;-83
2022/08/12 07:48:50;;;;;;;6.88;5.90;;;;;;;20.72;100.00;96164.31;5009650;28;20231;-85
2022/08/12 07:51:19;;;;;;;6.82;6.13;;;;;;;20.83;100.00;96156.72;5021576;28;20203;-84
2022/08/12 07:53:47;;;;;;;13.55;7.07;;;;;;;20.74;100.00;96151.13;5003477;28;20215;-83
2022/08/12 07:56:15;;;;;;;6.40;5.68;;;;;;;20.78;100.00;96149.38;5022755;28;20270;-84
2022/08/12 07:58:42;;;;;;;6.53;5.93;;;;;;;21.21;100.00;96151.16;5009159;28;20227;-85
2022/08/12 08:01:14;;;;;;;6.82;5.63;;;;;;;21.33;98.18;96151.50;5010916;28;20211;-84
2022/08/12 08:04:54;;;;;;;6.65;6.03;;;;;;;21.52;93.06;96152.22;5002132;28;20211;-83
2022/08/12 08:06:31;;;;;;;7.47;5.63;;;;;;;22.00;90.10;96149.88;5000948;28;20211;-85
2022/08/12 08:08:58;;;;;;;9.48;6.00;;;;;;;22.41;84.95;96152.53;5012418;28;20205;-84
2022/08/12 08:14:11;;;;;;;8.10;6.32;;;;;;;23.00;80.84;96145.91;5013367;28;20296;-82
2022/08/12 08:16:41;;;;;;;7.93;6.20;;;;;;;23.25;81.07;96152.69;5007417;28;20314;-84
2022/08/12 08:19:13;;;;;;;6.65;6.05;;;;;;;23.45;80.55;96156.03;5019532;28;20211;-83
2022/08/12 08:21:41;;;;;;;6.40;5.90;;;;;;;23.54;77.48;96152.22;5011254;28;20207;-84
2022/08/12 08:24:17;;;;;;;6.95;6.07;;;;;;;23.69;76.24;96154.56;5009994;28;20207;-83
2022/08/12 08:26:47;;;;;;;8.43;5.75;;;;;;;23.73;76.59;96169.31;5010088;28;20210;-83
2022/08/12 08:29:14;;;;;;;6.18;5.68;;;;;;;23.90;74.40;96151.22;5002281;28;20291;-84
2022/08/12 08:31:45;;;;;;;6.57;5.97;;;;;;;23.87;73.52;96158.19;5010435;28;20252;-84
2022/08/12 08:34:13;;;;;;;6.82;6.13;;;;;;;23.99;74.76;96161.13;5008732;28;20311;-84
2022/08/12 08:36:42;;;;;;;6.97;6.18;;;;;;;24.09;75.40;96155.31;5003161;28;20285;-85
2022/08/12 08:39:11;;;;;;;7.30;6.60;;;;;;;24.17;75.63;96144.59;5011304;28;20297;-84
2022/08/12 08:44:23;;;;;;;11.75;6.70;;;;;;;24.17;75.34;96156.47;5009335;28;20203;-83
2022/08/12 08:46:54;;;;;;;8.02;6.65;;;;;;;24.25;76.93;96147.41;5008186;28;20203;-84
2022/08/12 08:49:22;;;;;;;7.65;6.72;;;;;;;24.34;76.67;96150.19;5008068;28;20239;-84
2022/08/12 08:51:49;;;;;;;7.18;6.57;;;;;;;24.36;76.81;96151.50;5007415;28;20203;-84
2022/08/12 08:54:16;;;;;;;7.20;6.35;;;;;;;24.33;77.37;96145.84;5004025;28;20350;-84
2022/08/12 08:56:48;;;;;;;7.60;6.10;;;;;;;24.25;76.80;96146.59;5005306;28;20326;-83
2022/08/12 08:59:18;;;;;;;7.05;6.45;;;;;;;24.24;77.64;96145.00;5010559;28;20215;-84
2022/08/12 09:01:46;;;;;;;6.90;6.22;;;;;;;24.32;77.51;96141.44;5010852;28;20214;-84
2022/08/12 09:04:15;;;;;;;7.25;6.10;;;;;;;24.33;77.53;96138.34;4999526;28;20223;-84
2022/08/12 09:06:42;;;;;;;6.80;5.82;;;;;;;24.46;76.43;96131.06;5001711;28;20211;-84
2022/08/12 09:09:13;;;;;;;7.00;6.30;;;;;;;24.52;76.81;96144.38;5018652;28;20222;-84
2022/08/12 09:14:24;;;;;;;9.10;6.35;;;;;;;24.67;77.06;96131.22;5002683;28;20203;-84
2022/08/12 09:16:52;;;;;;;10.40;6.90;;;;;;;24.54;78.46;96132.19;5009985;28;20237;-84
2022/08/12 09:19:20;;;;;;;6.93;6.22;;;;;;;24.55;78.61;96131.06;5006765;28;20217;-83
2022/08/12 09:21:47;;;;;;;8.30;6.13;;;;;;;24.51;78.64;96131.69;5016410;28;20206;-84
2022/08/12 09:24:17;;;;;;;6.95;6.35;;;;;;;24.54;77.18;96126.66;4999987;28;20215;-84
2022/08/12 09:26:46;;;;;;;8.57;6.45;;;;;;;24.59;75.42;96124.56;5010424;28;20195;-83
2022/08/12 09:29:13;;;;;;;6.82;6.22;;;;;;;24.73;76.75;96116.94;5007178;28;20211;-83
2022/08/12 09:31:41;;;;;;;6.85;6.05;;;;;;;25.03;77.50;96122.59;5005584;28;20207;-83
2022/08/12 09:34:09;;;;;;;6.32;5.82;;;;;;;25.09;71.72;96118.53;4994813;28;20213;-84
2022/08/12 09:36:39;;;;;;;7.07;6.25;;;;;;;25.03;72.84;96109.59;4996601;28;20254;-83
2022/08/12 09:39:07;;;;;;;9.10;6.10;;;;;;;25.10;73.59;96112.66;5006309;28;20268;-83
2022/08/12 09:41:41;;;;;;;6.93;6.25;;;;;;;25.16;73.44;96108.59;5010485;28;20243;-84
2022/08/12 09:47:08;;;;;;;8.50;5.85;;;;;;;25.14;73.47;96101.78;4928359;29;20217;-82
2022/08/12 09:49:35;;;;;;;7.75;6.28;;;;;;;25.26;73.95;96096.38;4928595;29;20229;-83
2022/08/12 09:52:04;;;;;;;7.22;6.00;;;;;;;25.23;71.06;96091.50;4965135;28;20218;-83
2022/08/12 09:54:31;;;;;;;7.50;6.38;;;;;;;25.18;69.64;96091.66;5001560;28;20219;-84
2022/08/12 09:56:58;;;;;;;6.07;5.57;;;;;;;25.32;68.35;96089.53;5003843;28;20228;-83
2022/08/12 09:59:25;;;;;;;7.07;6.10;;;;;;;25.67;68.10;96092.19;5001653;28;20203;-83
2022/08/12 10:01:52;;;;;;;7.72;5.90;;;;;;;25.73;67.29;96085.31;5004640;28;20211;-83
2022/08/12 10:04:19;;;;;;;6.25;5.55;;;;;;;25.69;66.90;96084.38;5007236;28;20214;-84
2022/08/12 10:06:46;;;;;;;6.22;5.72;;;;;;;25.75;66.65;96081.06;5008916;28;20274;-83
2022/08/12 10:09:15;;;;;;;6.90;5.97;;;;;;;25.86;66.52;96079.53;5006031;28;20208;-83
2022/08/12 10:14:26;;;;;;;7.13;5.75;;;;;;;25.92;65.81;96074.63;5007790;28;20235;-83
2022/08/12 10:16:55;;;;;;;7.68;6.32;;;;;;;25.91;64.45;96078.53;5009728;28;20223;-84
2022/08/12 10:19:23;;;;;;;6.53;5.68;;;;;;;25.93;65.10;96065.19;5007004;28;20222;-84
2022/08/12 10:21:51;;;;;;;6.70;6.10;;;;;;;26.06;66.20;96064.09;5002968;28;20215;-83
2022/08/12 10:24:20;;;;;;;6.63;6.03;;;;;;;26.11;65.96;96068.66;5006304;28;20210;-84
2022/08/12 10:29:46;;;;;;;6.30;5.70;;;;;;;26.14;64.43;96057.69;5009077;28;20199;-83
2022/08/12 10:32:19;;;;;;;10.27;6.05;;;;;;;26.18;66.17;96050.34;4994549;28;20262;-83
2022/08/12 10:34:46;;;;;;;6.20;5.60;;;;;;;26.33;65.20;96049.78;5005672;28;20210;-85
2022/08/12 10:37:14;;;;;;;6.40;5.72;;;;;;;26.49;66.22;96057.44;5007608;28;20226;-84
2022/08/12 10:39:44;;;;;;;6.40;5.80;;;;;;;26.63;64.44;96046.88;5010196;28;20211;-85
2022/08/12 10:45:02;;;;;;;7.25;5.95;;;;;;;26.64;64.98;96046.56;5011026;28;20206;-83
2022/08/12 10:47:31;;;;;;;6.50;5.88;;;;;;;26.52;64.02;96052.06;5005982;28;20212;-84
2022/08/12 10:49:58;;;;;;;5.95;5.35;;;;;;;26.67;63.18;96042.31;5018193;28;20267;-83
2022/08/12 10:52:29;;;;;;;5.72;5.22;;;;;;;26.66;61.27;96040.69;5006623;28;20266;-84
2022/08/12 10:54:58;;;;;;;9.32;5.53;;;;;;;26.69;62.69;96040.00;5012021;28;20215;-83
2022/08/12 10:57:26;;;;;;;6.30;5.80;;;;;;;26.78;62.66;96037.16;5004925;28;20462;-83
2022/08/12 10:59:56;;;;;;;5.82;5.32;;;;;;;26.83;61.73;96037.75;5010021;28;20207;-83
2022/08/12 11:02:25;;;;;;;6.63;5.65;;;;;;;26.97;62.57;96029.94;5006898;28;20199;-83
2022/08/12 11:04:56;;;;;;;7.20;5.32;;;;;;;27.09;60.71;96024.44;5008594;28;20211;-83
2022/08/12 11:07:23;;;;;;;6.97;5.38;;;;;;;27.05;60.38;96029.03;5000892;28;20211;-83
2022/08/12 11:09:51;;;;;;;5.85;5.20;;;;;;;27.01;59.76;96019.81;5007498;28;20297;-83
2022/08/12 11:12:19;;;;;;;6.00;5.30;;;;;;;27.21;61.08;96018.13;5008654;28;20286;-84
2022/08/12 11:14:46;;;;;;;7.72;5.30;;;;;;;27.23;58.92;96012.22;5029746;28;20257;-83
2022/08/12 11:17:14;;;;;;;5.45;4.97;;;;;;;27.36;58.35;96011.06;5002911;28;20226;-84
2022/08/12 11:19:42;;;;;;;6.70;5.15;;;;;;;27.29;58.58;96014.44;5004952;28;20310;-83
2022/08/12 11:22:11;;;;;;;7.05;5.28;;;;;;;27.43;57.35;96014.88;5001399;28;20210;-84
2022/08/12 11:24:38;;;;;;;5.88;4.95;;;;;;;27.48;57.65;96011.88;5010520;28;20208;-83
2022/08/12 11:27:08;;;;;;;8.07;5.57;;;;;;;27.45;55.82;95993.16;5006911;28;20227;-84
2022/08/12 11:29:37;;;;;;;5.32;4.82;;;;;;;27.53;57.51;96005.31;5001003;28;20218;-83
2022/08/12 11:32:04;;;;;;;5.68;4.90;;;;;;;27.52;56.74;96000.91;5010364;28;20199;-83
2022/08/12 11:34:32;;;;;;;5.47;5.00;;;;;;;27.52;56.68;95995.34;5001541;28;20270;-83
2022/08/12 11:37:03;;;;;;;6.85;5.30;;;;;;;27.56;57.00;95992.75;5003209;28;20319;-83
2022/08/12 11:39:31;;;;;;;4.95;4.55;;;;;;;27.74;56.71;95986.56;5004708;28;20206;-83
2022/08/12 11:41:58;;;;;;;5.00;4.50;;;;;;;27.99;54.49;95992.06;5010459;28;20211;-84
2022/08/12 11:44:25;;;;;;;5.68;5.07;;;;;;;28.04;55.15;95983.53;5010048;28;20221;-84
2022/08/12 11:46:54;;;;;;;7.38;5.03;;;;;;;27.94;54.33;95990.38;5007627;28;20211;-82
2022/08/12 11:49:23;;;;;;;5.25;4.78;;;;;;;28.16;53.21;95980.72;5002402;28;20230;-84
2022/08/12 11:51:50;;;;;;;5.28;4.78;;;;;;;28.36;54.27;95988.06;5011379;28;20212;-84
2022/08/12 11:54:17;;;;;;;6.38;4.57;;;;;;;28.36;53.69;95987.25;5004325;28;20298;-84
2022/08/12 11:56:44;;;;;;;5.05;4.65;;;;;;;28.18;53.81;95987.53;5008836;28;20225;-83
2022/08/12 11:59:11;;;;;;;6.50;5.10;;;;;;;28.31;54.44;95985.56;5006220;28;20215;-83
2022/08/12 12:01:38;;;;;;;4.95;4.45;;;;;;;28.42;52.87;95991.38;5008287;28;20211;-84
2022/08/12 12:04:06;;;;;;;5.30;4.78;;;;;;;28.41;52.60;95976.69;5002466;28;20211;-84
2022/08/12 12:06:34;;;;;;;5.05;4.57;;;;;;;28.38;53.91;95968.28;4999718;28;20262;-84
2022/08/12 12:09:01;;;;;;;5.03;4.32;;;;;;;28.70;53.74;95983.03;4998654;28;20220;-83
2022/08/12 12:11:28;;;;;;;8.10;4.65;;;;;;;28.57;52.30;95980.34;5004353;28;20203;-84
2022/08/12 12:13:55;;;;;;;5.35;4.35;;;;;;;28.62;51.85;95976.50;4999344;28;20262;-84
2022/08/12 12:16:22;;;;;;;5.38;4.25;;;;;;;28.49;52.58;95970.22;5005279;28;20351;-83
2022/08/12 12:18:49;;;;;;;5.05;4.40;;;;;;;28.66;51.50;95974.63;5009493;28;20294;-84
2022/08/12 12:21:17;;;;;;;4.85;4.32;;;;;;;28.69;50.06;95973.09;5012818;28;20217;-83
2022/08/12 12:23:44;;;;;;;4.95;4.30;;;;;;;28.55;50.51;95971.56;5023782;28;20199;-83
2022/08/12 12:26:11;;;;;;;5.80;4.38;;;;;;;28.71;51.26;95976.34;5006122;28;20204;-83
2022/08/12 12:28:41;;;;;;;4.70;4.22;;;;;;;28.74;50.25;95973.66;5004981;28;20217;-83
2022/08/12 12:31:09;;;;;;;4.53;4.18;;;;;;;28.75;50.25;95960.59;5010183;28;20254;-84
2022/08/12 12:33:36;;;;;;;6.40;4.18;;;;;;;28.96;49.31;95966.72;5010779;28;20253;-84
2022/08/12 12:36:03;;;;;;;4.93;3.85;;;;;;;29.03;48.88;95968.88;5006385;28;20222;-83
2022/08/12 12:38:31;;;;;;;4.80;4.13;;;;;;;28.99;48.52;95957.66;5007880;28;20215;-83
2022/08/12 12:40:59;;;;;;;4.40;3.95;;;;;;;28.95;47.80;95951.19;5010698;28;20215;-84
2022/08/12 12:43:26;;;;;;;5.60;3.75;;;;;;;29.18;49.31;95946.63;5007008;28;20199;-83
2022/08/12 12:45:53;;;;;;;6.18;3.83;;;;;;;29.40;47.54;95949.97;4999411;28;20302;-83
2022/08/12 12:48:21;;;;;;;5.82;3.97;;;;;;;29.10;47.37;95947.59;5002590;28;20214;-84
2022/08/12 12:51:14;;;;;;;6.50;4.00;;;;;;;29.00;46.59;95936.25;5026545;28;20258;-83
2022/08/12 12:53:42;;;;;;;4.82;3.30;;;;;;;29.38;46.88;95938.38;5010485;28;20213;-84
2022/08/12 12:56:14;;;;;;;4.32;3.88;;;;;;;29.49;45.20;95937.50;5004422;28;20238;-83
2022/08/12 12:58:42;;;;;;;4.90;3.80;;;;;;;29.26;45.93;95933.72;5010619;28;20207;-84
2022/08/12 13:01:10;;;;;;;5.10;3.58;;;;;;;29.34;46.58;95933.53;5010042;28;20215;-83
2022/08/12 13:03:37;;;;;;;6.50;3.97;;;;;;;29.42;46.13;95942.06;5011164;28;20195;-83
2022/08/12 13:06:04;;;;;;;4.07;3.72;;;;;;;29.41;45.20;95937.69;5011832;28;20209;-83
2022/08/12 13:08:32;;;;;;;6.45;4.03;;;;;;;29.56;46.66;95936.84;5024244;28;20205;-84
2022/08/12 13:11:03;;;;;;;5.35;3.60;;;;;;;29.57;44.57;95939.25;5009630;28;20286;-84
2022/08/12 13:13:31;;;;;;;6.75;3.90;;;;;;;29.57;46.32;95933.69;5006135;28;20215;-85
2022/08/12 13:16:00;;;;;;;4.10;3.80;;;;;;;29.42;44.22;95925.41;5026473;28;20218;-85
2022/08/12 13:18:30;;;;;;;4.15;3.63;;;;;;;29.51;44.99;95921.25;5000819;28;20199;-83
2022/08/12 13:20:57;;;;;;;5.10;3.97;;;;;;;29.64;43.20;95928.28;5027477;28;20199;-83
2022/08/12 13:23:24;;;;;;;6.65;3.80;;;;;;;29.54;44.61;95928.84;5013188;28;20214;-84
2022/08/12 13:25:52;;;;;;;5.45;3.70;;;;;;;29.49;42.75;95917.22;5007794;28;20204;-83
2022/08/12 13:28:27;;;;;;;4.95;3.50;;;;;;;29.21;43.41;95926.44;5005477;28;20198;-83